sensor_id;sensor_type;location;lat;lon;timestamp;P1;durP1;ratioP1;P2;durP2;ratioP2
75691;SDS011;64307;52.508;6.090;2023-03-01T00:38:45;15.50;;;7.93;;
75691;SDS011;64307;52.508;6.090;2023-03-01T00:41:13;12.95;;;8.30;;
75691;SDS011;64307;52.508;6.090;2023-03-01T00:43:40;16.83;;;8.48;;
75691;SDS011;64307;52.508;6.090;2023-03-01T00:46:07;16.15;;;10.70;;
75691;SDS011;64307;52.508;6.090;2023-03-01T00:48:43;16.80;;;8.38;;
75691;SDS011;64307;52.508;6.090;2023-03-01T00:51:10;14.40;;;8.07;;
75691;SDS011;64307;52.508;6.090;2023-03-01T00:53:40;14.38;;;8.23;;
75691;SDS011;64307;52.508;6.090;2023-03-01T00:56:06;13.82;;;8.52;;
75691;SDS011;64307;52.508;6.090;2023-03-01T00:58:33;14.43;;;7.82;;
75691;SDS011;64307;52.508;6.090;2023-03-01T01:00:59;15.63;;;8.65;;
75691;SDS011;64307;52.508;6.090;2023-03-01T01:03:25;16.17;;;9.23;;
75691;SDS011;64307;52.508;6.090;2023-03-01T01:05:53;20.40;;;10.27;;
75691;SDS011;64307;52.508;6.090;2023-03-01T01:08:19;15.98;;;9.32;;
75691;SDS011;64307;52.508;6.090;2023-03-01T01:10:46;16.70;;;10.95;;
75691;SDS011;64307;52.508;6.090;2023-03-01T01:13:12;18.42;;;9.35;;
75691;SDS011;64307;52.508;6.090;2023-03-01T01:15:38;16.60;;;9.25;;
75691;SDS011;64307;52.508;6.090;2023-03-01T01:18:03;16.45;;;9.85;;
75691;SDS011;64307;52.508;6.090;2023-03-01T01:20:29;19.13;;;12.43;;
75691;SDS011;64307;52.508;6.090;2023-03-01T01:22:54;16.17;;;9.65;;
75691;SDS011;64307;52.508;6.090;2023-03-01T01:25:20;18.55;;;9.65;;
75691;SDS011;64307;52.508;6.090;2023-03-01T01:27:46;17.77;;;10.50;;
75691;SDS011;64307;52.508;6.090;2023-03-01T01:30:11;18.58;;;11.82;;
75691;SDS011;64307;52.508;6.090;2023-03-01T01:32:37;19.60;;;10.85;;
75691;SDS011;64307;52.508;6.090;2023-03-01T01:35:03;21.90;;;12.43;;
75691;SDS011;64307;52.508;6.090;2023-03-01T01:37:28;19.85;;;10.63;;
75691;SDS011;64307;52.508;6.090;2023-03-01T01:39:59;19.52;;;12.60;;
75691;SDS011;64307;52.508;6.090;2023-03-01T01:42:25;23.50;;;11.57;;
75691;SDS011;64307;52.508;6.090;2023-03-01T01:47:54;19.75;;;11.02;;
75691;SDS011;64307;52.508;6.090;2023-03-01T01:50:23;24.35;;;11.75;;
75691;SDS011;64307;52.508;6.090;2023-03-01T01:52:49;21.48;;;14.07;;
75691;SDS011;64307;52.508;6.090;2023-03-01T01:55:19;24.30;;;12.88;;
75691;SDS011;64307;52.508;6.090;2023-03-01T01:57:49;22.75;;;13.07;;
75691;SDS011;64307;52.508;6.090;2023-03-01T02:00:22;24.38;;;13.32;;
75691;SDS011;64307;52.508;6.090;2023-03-01T02:02:50;23.50;;;14.80;;
75691;SDS011;64307;52.508;6.090;2023-03-01T02:05:28;25.60;;;13.23;;
75691;SDS011;64307;52.508;6.090;2023-03-01T02:08:01;23.38;;;12.90;;
75691;SDS011;64307;52.508;6.090;2023-03-01T02:10:27;26.40;;;15.45;;
75691;SDS011;64307;52.508;6.090;2023-03-01T02:12:53;26.67;;;14.25;;
75691;SDS011;64307;52.508;6.090;2023-03-01T02:15:19;25.67;;;14.52;;
75691;SDS011;64307;52.508;6.090;2023-03-01T02:17:44;25.75;;;14.32;;
75691;SDS011;64307;52.508;6.090;2023-03-01T02:20:21;24.48;;;13.18;;
75691;SDS011;64307;52.508;6.090;2023-03-01T02:22:58;28.58;;;16.52;;
75691;SDS011;64307;52.508;6.090;2023-03-01T02:30:58;27.67;;;14.63;;
75691;SDS011;64307;52.508;6.090;2023-03-01T02:33:42;26.35;;;14.88;;
75691;SDS011;64307;52.508;6.090;2023-03-01T02:38:40;26.10;;;13.18;;
75691;SDS011;64307;52.508;6.090;2023-03-01T02:41:07;26.73;;;13.73;;
75691;SDS011;64307;52.508;6.090;2023-03-01T02:43:33;29.42;;;16.80;;
75691;SDS011;64307;52.508;6.090;2023-03-01T02:46:04;30.90;;;16.25;;
75691;SDS011;64307;52.508;6.090;2023-03-01T02:54:31;26.92;;;15.48;;
75691;SDS011;64307;52.508;6.090;2023-03-01T02:57:01;26.98;;;15.98;;
75691;SDS011;64307;52.508;6.090;2023-03-01T02:59:29;25.58;;;13.75;;
75691;SDS011;64307;52.508;6.090;2023-03-01T03:02:04;28.35;;;14.18;;
75691;SDS011;64307;52.508;6.090;2023-03-01T03:04:30;29.98;;;16.38;;
75691;SDS011;64307;52.508;6.090;2023-03-01T03:06:56;26.25;;;14.25;;
75691;SDS011;64307;52.508;6.090;2023-03-01T03:09:22;29.42;;;14.40;;
75691;SDS011;64307;52.508;6.090;2023-03-01T03:11:47;28.75;;;15.05;;
75691;SDS011;64307;52.508;6.090;2023-03-01T03:14:13;26.77;;;13.88;;
75691;SDS011;64307;52.508;6.090;2023-03-01T03:16:44;29.02;;;15.77;;
75691;SDS011;64307;52.508;6.090;2023-03-01T03:19:15;29.80;;;16.83;;
75691;SDS011;64307;52.508;6.090;2023-03-01T03:24:07;27.45;;;14.45;;
75691;SDS011;64307;52.508;6.090;2023-03-01T03:26:32;26.98;;;16.40;;
75691;SDS011;64307;52.508;6.090;2023-03-01T03:28:58;22.08;;;12.75;;
75691;SDS011;64307;52.508;6.090;2023-03-01T03:31:23;28.88;;;13.82;;
75691;SDS011;64307;52.508;6.090;2023-03-01T03:33:49;25.75;;;13.45;;
75691;SDS011;64307;52.508;6.090;2023-03-01T03:36:15;26.25;;;13.30;;
75691;SDS011;64307;52.508;6.090;2023-03-01T03:38:42;28.77;;;18.77;;
75691;SDS011;64307;52.508;6.090;2023-03-01T03:41:08;26.13;;;13.68;;
75691;SDS011;64307;52.508;6.090;2023-03-01T03:43:35;28.38;;;14.32;;
75691;SDS011;64307;52.508;6.090;2023-03-01T03:46:02;26.90;;;16.27;;
75691;SDS011;64307;52.508;6.090;2023-03-01T03:48:30;24.63;;;13.85;;
75691;SDS011;64307;52.508;6.090;2023-03-01T03:50:57;28.77;;;15.82;;
75691;SDS011;64307;52.508;6.090;2023-03-01T03:53:23;30.75;;;13.65;;
75691;SDS011;64307;52.508;6.090;2023-03-01T03:55:51;28.02;;;15.85;;
75691;SDS011;64307;52.508;6.090;2023-03-01T03:58:18;26.25;;;13.85;;
75691;SDS011;64307;52.508;6.090;2023-03-01T04:00:44;27.27;;;16.45;;
75691;SDS011;64307;52.508;6.090;2023-03-01T04:03:12;23.83;;;15.00;;
75691;SDS011;64307;52.508;6.090;2023-03-01T04:05:40;26.63;;;15.50;;
75691;SDS011;64307;52.508;6.090;2023-03-01T04:10:33;22.33;;;14.60;;
75691;SDS011;64307;52.508;6.090;2023-03-01T04:13:04;26.73;;;15.38;;
75691;SDS011;64307;52.508;6.090;2023-03-01T04:17:58;25.27;;;14.20;;
75691;SDS011;64307;52.508;6.090;2023-03-01T04:20:26;21.67;;;12.23;;
75691;SDS011;64307;52.508;6.090;2023-03-01T04:22:57;26.58;;;13.70;;
75691;SDS011;64307;52.508;6.090;2023-03-01T04:25:24;26.75;;;16.17;;
75691;SDS011;64307;52.508;6.090;2023-03-01T04:27:50;27.52;;;15.98;;
75691;SDS011;64307;52.508;6.090;2023-03-01T04:30:16;25.27;;;13.27;;
75691;SDS011;64307;52.508;6.090;2023-03-01T04:32:41;28.52;;;13.43;;
75691;SDS011;64307;52.508;6.090;2023-03-01T04:35:06;28.05;;;14.48;;
75691;SDS011;64307;52.508;6.090;2023-03-01T04:37:33;27.17;;;14.60;;
75691;SDS011;64307;52.508;6.090;2023-03-01T04:40:02;28.15;;;14.25;;
75691;SDS011;64307;52.508;6.090;2023-03-01T04:42:41;27.02;;;15.65;;
75691;SDS011;64307;52.508;6.090;2023-03-01T04:45:07;28.17;;;13.88;;
75691;SDS011;64307;52.508;6.090;2023-03-01T04:47:38;28.08;;;16.02;;
75691;SDS011;64307;52.508;6.090;2023-03-01T04:50:04;32.72;;;13.85;;
75691;SDS011;64307;52.508;6.090;2023-03-01T04:52:30;29.05;;;13.93;;
75691;SDS011;64307;52.508;6.090;2023-03-01T04:54:56;25.48;;;13.10;;
75691;SDS011;64307;52.508;6.090;2023-03-01T04:57:21;28.77;;;13.82;;
75691;SDS011;64307;52.508;6.090;2023-03-01T04:59:48;25.30;;;13.52;;
75691;SDS011;64307;52.508;6.090;2023-03-01T05:02:13;24.90;;;12.73;;
75691;SDS011;64307;52.508;6.090;2023-03-01T05:04:38;26.55;;;14.00;;
75691;SDS011;64307;52.508;6.090;2023-03-01T05:07:04;26.77;;;13.90;;
75691;SDS011;64307;52.508;6.090;2023-03-01T05:09:29;27.58;;;16.15;;
75691;SDS011;64307;52.508;6.090;2023-03-01T05:11:54;26.50;;;14.13;;
75691;SDS011;64307;52.508;6.090;2023-03-01T05:14:19;26.23;;;13.70;;
75691;SDS011;64307;52.508;6.090;2023-03-01T05:16:45;27.77;;;13.95;;
75691;SDS011;64307;52.508;6.090;2023-03-01T05:19:12;27.55;;;15.20;;
75691;SDS011;64307;52.508;6.090;2023-03-01T05:21:40;27.02;;;16.00;;
75691;SDS011;64307;52.508;6.090;2023-03-01T05:24:26;27.38;;;13.80;;
75691;SDS011;64307;52.508;6.090;2023-03-01T05:26:51;25.15;;;13.07;;
75691;SDS011;64307;52.508;6.090;2023-03-01T05:29:18;25.45;;;14.35;;
75691;SDS011;64307;52.508;6.090;2023-03-01T05:31:52;27.20;;;15.38;;
75691;SDS011;64307;52.508;6.090;2023-03-01T05:34:24;23.48;;;12.77;;
75691;SDS011;64307;52.508;6.090;2023-03-01T05:36:53;26.50;;;15.25;;
75691;SDS011;64307;52.508;6.090;2023-03-01T05:39:22;25.73;;;13.45;;
75691;SDS011;64307;52.508;6.090;2023-03-01T05:41:57;25.40;;;14.63;;
75691;SDS011;64307;52.508;6.090;2023-03-01T05:44:24;26.30;;;13.23;;
75691;SDS011;64307;52.508;6.090;2023-03-01T05:46:50;25.02;;;14.82;;
75691;SDS011;64307;52.508;6.090;2023-03-01T05:49:16;27.23;;;14.88;;
75691;SDS011;64307;52.508;6.090;2023-03-01T05:51:42;25.05;;;13.55;;
75691;SDS011;64307;52.508;6.090;2023-03-01T05:54:12;25.27;;;12.70;;
75691;SDS011;64307;52.508;6.090;2023-03-01T05:56:37;23.85;;;12.93;;
75691;SDS011;64307;52.508;6.090;2023-03-01T05:59:03;23.73;;;13.37;;
75691;SDS011;64307;52.508;6.090;2023-03-01T06:01:33;24.48;;;13.80;;
75691;SDS011;64307;52.508;6.090;2023-03-01T06:03:59;25.33;;;13.95;;
75691;SDS011;64307;52.508;6.090;2023-03-01T06:06:24;27.50;;;14.18;;
75691;SDS011;64307;52.508;6.090;2023-03-01T06:08:50;21.67;;;12.35;;
75691;SDS011;64307;52.508;6.090;2023-03-01T06:11:16;24.95;;;15.23;;
75691;SDS011;64307;52.508;6.090;2023-03-01T06:13:42;23.35;;;14.63;;
75691;SDS011;64307;52.508;6.090;2023-03-01T06:16:08;24.25;;;14.57;;
75691;SDS011;64307;52.508;6.090;2023-03-01T06:18:35;21.42;;;11.65;;
75691;SDS011;64307;52.508;6.090;2023-03-01T06:21:01;23.60;;;12.77;;
75691;SDS011;64307;52.508;6.090;2023-03-01T06:23:26;21.70;;;13.18;;
75691;SDS011;64307;52.508;6.090;2023-03-01T06:25:51;23.00;;;12.65;;
75691;SDS011;64307;52.508;6.090;2023-03-01T06:28:17;22.58;;;12.98;;
75691;SDS011;64307;52.508;6.090;2023-03-01T06:30:42;22.70;;;12.73;;
75691;SDS011;64307;52.508;6.090;2023-03-01T06:33:08;22.80;;;12.55;;
75691;SDS011;64307;52.508;6.090;2023-03-01T06:35:33;24.92;;;14.05;;
75691;SDS011;64307;52.508;6.090;2023-03-01T06:37:59;20.65;;;11.35;;
75691;SDS011;64307;52.508;6.090;2023-03-01T06:40:26;20.98;;;12.05;;
75691;SDS011;64307;52.508;6.090;2023-03-01T06:42:52;23.33;;;14.07;;
75691;SDS011;64307;52.508;6.090;2023-03-01T06:45:18;20.05;;;11.77;;
75691;SDS011;64307;52.508;6.090;2023-03-01T06:47:44;20.83;;;11.10;;
75691;SDS011;64307;52.508;6.090;2023-03-01T06:50:10;21.77;;;12.23;;
75691;SDS011;64307;52.508;6.090;2023-03-01T06:52:35;21.00;;;11.48;;
75691;SDS011;64307;52.508;6.090;2023-03-01T06:55:02;20.65;;;12.77;;
75691;SDS011;64307;52.508;6.090;2023-03-01T06:57:27;20.80;;;11.32;;
75691;SDS011;64307;52.508;6.090;2023-03-01T06:59:54;19.50;;;10.80;;
75691;SDS011;64307;52.508;6.090;2023-03-01T07:02:20;20.45;;;12.68;;
75691;SDS011;64307;52.508;6.090;2023-03-01T07:04:45;20.93;;;13.30;;
75691;SDS011;64307;52.508;6.090;2023-03-01T07:07:10;19.73;;;11.43;;
75691;SDS011;64307;52.508;6.090;2023-03-01T07:09:36;21.50;;;11.70;;
75691;SDS011;64307;52.508;6.090;2023-03-01T07:12:02;21.85;;;12.50;;
75691;SDS011;64307;52.508;6.090;2023-03-01T07:14:27;25.20;;;13.57;;
75691;SDS011;64307;52.508;6.090;2023-03-01T07:16:53;23.08;;;14.43;;
75691;SDS011;64307;52.508;6.090;2023-03-01T07:19:19;24.15;;;14.40;;
75691;SDS011;64307;52.508;6.090;2023-03-01T07:21:45;20.92;;;12.05;;
75691;SDS011;64307;52.508;6.090;2023-03-01T07:24:12;25.80;;;14.82;;
75691;SDS011;64307;52.508;6.090;2023-03-01T07:26:37;23.45;;;13.05;;
75691;SDS011;64307;52.508;6.090;2023-03-01T07:29:04;19.50;;;11.90;;
75691;SDS011;64307;52.508;6.090;2023-03-01T07:31:31;25.95;;;15.98;;
75691;SDS011;64307;52.508;6.090;2023-03-01T07:33:56;31.63;;;13.63;;
75691;SDS011;64307;52.508;6.090;2023-03-01T07:36:22;24.38;;;15.32;;
75691;SDS011;64307;52.508;6.090;2023-03-01T07:38:48;23.67;;;12.70;;
75691;SDS011;64307;52.508;6.090;2023-03-01T07:41:13;20.95;;;14.27;;
75691;SDS011;64307;52.508;6.090;2023-03-01T07:43:39;21.92;;;13.90;;
75691;SDS011;64307;52.508;6.090;2023-03-01T07:46:04;24.33;;;14.75;;
75691;SDS011;64307;52.508;6.090;2023-03-01T07:48:31;20.02;;;14.25;;
75691;SDS011;64307;52.508;6.090;2023-03-01T07:50:58;20.13;;;14.30;;
75691;SDS011;64307;52.508;6.090;2023-03-01T07:53:27;22.30;;;14.15;;
75691;SDS011;64307;52.508;6.090;2023-03-01T07:56:08;17.58;;;14.02;;
75691;SDS011;64307;52.508;6.090;2023-03-01T07:58:36;17.83;;;14.10;;
75691;SDS011;64307;52.508;6.090;2023-03-01T08:01:03;17.02;;;13.38;;
75691;SDS011;64307;52.508;6.090;2023-03-01T08:03:33;18.15;;;16.30;;
75691;SDS011;64307;52.508;6.090;2023-03-01T08:06:00;16.83;;;14.90;;
75691;SDS011;64307;52.508;6.090;2023-03-01T08:08:26;14.65;;;12.93;;
75691;SDS011;64307;52.508;6.090;2023-03-01T08:10:52;14.65;;;13.07;;
75691;SDS011;64307;52.508;6.090;2023-03-01T08:13:17;15.68;;;14.07;;
75691;SDS011;64307;52.508;6.090;2023-03-01T08:15:47;15.18;;;13.13;;
75691;SDS011;64307;52.508;6.090;2023-03-01T08:18:13;13.80;;;12.38;;
75691;SDS011;64307;52.508;6.090;2023-03-01T08:20:38;13.13;;;11.70;;
75691;SDS011;64307;52.508;6.090;2023-03-01T08:23:03;14.30;;;12.27;;
75691;SDS011;64307;52.508;6.090;2023-03-01T08:25:29;15.40;;;11.40;;
75691;SDS011;64307;52.508;6.090;2023-03-01T08:27:54;14.18;;;11.98;;
75691;SDS011;64307;52.508;6.090;2023-03-01T08:30:19;13.60;;;11.40;;
75691;SDS011;64307;52.508;6.090;2023-03-01T08:32:45;13.77;;;12.10;;
75691;SDS011;64307;52.508;6.090;2023-03-01T08:35:10;14.48;;;12.98;;
75691;SDS011;64307;52.508;6.090;2023-03-01T08:37:36;15.95;;;11.70;;
75691;SDS011;64307;52.508;6.090;2023-03-01T08:40:01;12.52;;;11.10;;
75691;SDS011;64307;52.508;6.090;2023-03-01T08:42:28;15.88;;;13.57;;
75691;SDS011;64307;52.508;6.090;2023-03-01T08:44:53;13.43;;;10.95;;
75691;SDS011;64307;52.508;6.090;2023-03-01T08:47:19;14.10;;;10.75;;
75691;SDS011;64307;52.508;6.090;2023-03-01T08:49:44;13.65;;;12.18;;
75691;SDS011;64307;52.508;6.090;2023-03-01T08:52:09;14.70;;;11.73;;
75691;SDS011;64307;52.508;6.090;2023-03-01T08:54:35;13.38;;;12.07;;
75691;SDS011;64307;52.508;6.090;2023-03-01T08:57:03;14.07;;;12.67;;
75691;SDS011;64307;52.508;6.090;2023-03-01T08:59:28;10.88;;;9.77;;
75691;SDS011;64307;52.508;6.090;2023-03-01T09:01:54;13.02;;;10.82;;
75691;SDS011;64307;52.508;6.090;2023-03-01T09:04:20;10.60;;;9.13;;
75691;SDS011;64307;52.508;6.090;2023-03-01T09:06:45;13.77;;;10.13;;
75691;SDS011;64307;52.508;6.090;2023-03-01T09:09:16;11.00;;;9.88;;
75691;SDS011;64307;52.508;6.090;2023-03-01T09:11:43;9.75;;;8.15;;
75691;SDS011;64307;52.508;6.090;2023-03-01T09:14:11;9.05;;;8.10;;
75691;SDS011;64307;52.508;6.090;2023-03-01T09:16:37;9.50;;;8.00;;
75691;SDS011;64307;52.508;6.090;2023-03-01T09:19:04;8.25;;;6.55;;
75691;SDS011;64307;52.508;6.090;2023-03-01T09:21:30;10.27;;;9.10;;
75691;SDS011;64307;52.508;6.090;2023-03-01T09:23:55;10.55;;;7.35;;
75691;SDS011;64307;52.508;6.090;2023-03-01T09:26:22;8.60;;;7.70;;
75691;SDS011;64307;52.508;6.090;2023-03-01T09:28:49;7.22;;;5.90;;
75691;SDS011;64307;52.508;6.090;2023-03-01T09:31:16;7.63;;;6.82;;
75691;SDS011;64307;52.508;6.090;2023-03-01T09:33:45;9.60;;;7.57;;
75691;SDS011;64307;52.508;6.090;2023-03-01T09:36:15;6.78;;;5.70;;
75691;SDS011;64307;52.508;6.090;2023-03-01T09:38:43;9.43;;;6.05;;
75691;SDS011;64307;52.508;6.090;2023-03-01T09:41:52;8.50;;;7.35;;
75691;SDS011;64307;52.508;6.090;2023-03-01T09:43:59;9.10;;;5.95;;
75691;SDS011;64307;52.508;6.090;2023-03-01T09:46:29;8.02;;;6.68;;
75691;SDS011;64307;52.508;6.090;2023-03-01T09:49:05;8.48;;;7.53;;
75691;SDS011;64307;52.508;6.090;2023-03-01T09:51:37;7.57;;;6.38;;
75691;SDS011;64307;52.508;6.090;2023-03-01T09:54:03;8.05;;;6.30;;
75691;SDS011;64307;52.508;6.090;2023-03-01T09:56:34;7.95;;;4.88;;
75691;SDS011;64307;52.508;6.090;2023-03-01T10:02:11;6.10;;;4.45;;
75691;SDS011;64307;52.508;6.090;2023-03-01T10:05:05;7.00;;;5.43;;
75691;SDS011;64307;52.508;6.090;2023-03-01T10:08:02;8.27;;;4.75;;
75691;SDS011;64307;52.508;6.090;2023-03-01T10:10:49;7.60;;;5.28;;
75691;SDS011;64307;52.508;6.090;2023-03-01T10:13:32;6.75;;;4.50;;
75691;SDS011;64307;52.508;6.090;2023-03-01T10:16:10;6.30;;;4.22;;
75691;SDS011;64307;52.508;6.090;2023-03-01T10:18:39;6.03;;;4.57;;
75691;SDS011;64307;52.508;6.090;2023-03-01T10:21:14;7.25;;;5.28;;
75691;SDS011;64307;52.508;6.090;2023-03-01T10:23:41;5.93;;;4.47;;
75691;SDS011;64307;52.508;6.090;2023-03-01T10:28:48;6.32;;;3.75;;
75691;SDS011;64307;52.508;6.090;2023-03-01T10:31:36;6.68;;;3.83;;
75691;SDS011;64307;52.508;6.090;2023-03-01T10:34:10;5.75;;;3.10;;
75691;SDS011;64307;52.508;6.090;2023-03-01T10:36:38;7.65;;;4.03;;
75691;SDS011;64307;52.508;6.090;2023-03-01T10:39:11;6.03;;;3.42;;
75691;SDS011;64307;52.508;6.090;2023-03-01T10:44:57;7.25;;;5.35;;
75691;SDS011;64307;52.508;6.090;2023-03-01T10:47:24;8.93;;;4.90;;
75691;SDS011;64307;52.508;6.090;2023-03-01T10:49:52;5.75;;;3.25;;
75691;SDS011;64307;52.508;6.090;2023-03-01T10:52:23;6.20;;;3.15;;
75691;SDS011;64307;52.508;6.090;2023-03-01T10:54:53;6.70;;;3.17;;
75691;SDS011;64307;52.508;6.090;2023-03-01T10:57:39;4.70;;;2.72;;
75691;SDS011;64307;52.508;6.090;2023-03-01T11:00:16;5.10;;;2.63;;
75691;SDS011;64307;52.508;6.090;2023-03-01T11:02:49;7.38;;;2.60;;
75691;SDS011;64307;52.508;6.090;2023-03-01T11:05:24;4.65;;;2.67;;
75691;SDS011;64307;52.508;6.090;2023-03-01T11:07:52;6.00;;;3.03;;
75691;SDS011;64307;52.508;6.090;2023-03-01T11:12:50;5.50;;;3.22;;
75691;SDS011;64307;52.508;6.090;2023-03-01T11:15:34;4.97;;;2.97;;
75691;SDS011;64307;52.508;6.090;2023-03-01T11:18:00;8.57;;;2.78;;
75691;SDS011;64307;52.508;6.090;2023-03-01T11:23:01;6.90;;;2.95;;
75691;SDS011;64307;52.508;6.090;2023-03-01T11:25:31;5.90;;;3.05;;
75691;SDS011;64307;52.508;6.090;2023-03-01T11:28:02;6.57;;;3.03;;
75691;SDS011;64307;52.508;6.090;2023-03-01T11:36:07;7.78;;;3.45;;
75691;SDS011;64307;52.508;6.090;2023-03-01T11:38:41;7.50;;;3.38;;
75691;SDS011;64307;52.508;6.090;2023-03-01T11:41:11;6.88;;;3.67;;
75691;SDS011;64307;52.508;6.090;2023-03-01T11:43:47;8.50;;;3.45;;
75691;SDS011;64307;52.508;6.090;2023-03-01T11:49:25;7.47;;;4.20;;
75691;SDS011;64307;52.508;6.090;2023-03-01T11:57:18;9.35;;;4.50;;
75691;SDS011;64307;52.508;6.090;2023-03-01T12:10:52;6.43;;;4.25;;
75691;SDS011;64307;52.508;6.090;2023-03-01T12:16:33;8.57;;;4.57;;
75691;SDS011;64307;52.508;6.090;2023-03-01T12:19:30;7.47;;;3.80;;
75691;SDS011;64307;52.508;6.090;2023-03-01T12:22:06;8.13;;;4.00;;
75691;SDS011;64307;52.508;6.090;2023-03-01T12:33:27;5.35;;;2.97;;
75691;SDS011;64307;52.508;6.090;2023-03-01T12:38:49;11.32;;;4.88;;
75691;SDS011;64307;52.508;6.090;2023-03-01T12:41:38;7.13;;;3.60;;
75691;SDS011;64307;52.508;6.090;2023-03-01T12:47:40;8.70;;;4.28;;
75691;SDS011;64307;52.508;6.090;2023-03-01T12:53:03;7.00;;;3.90;;
75691;SDS011;64307;52.508;6.090;2023-03-01T12:55:29;7.32;;;3.45;;
75691;SDS011;64307;52.508;6.090;2023-03-01T12:58:17;6.22;;;3.25;;
75691;SDS011;64307;52.508;6.090;2023-03-01T13:06:11;9.77;;;4.43;;
75691;SDS011;64307;52.508;6.090;2023-03-01T13:08:53;6.28;;;3.45;;
75691;SDS011;64307;52.508;6.090;2023-03-01T13:11:31;6.70;;;3.63;;
75691;SDS011;64307;52.508;6.090;2023-03-01T13:14:34;7.13;;;4.57;;
75691;SDS011;64307;52.508;6.090;2023-03-01T13:16:51;11.30;;;5.28;;
75691;SDS011;64307;52.508;6.090;2023-03-01T13:19:23;7.45;;;3.65;;
75691;SDS011;64307;52.508;6.090;2023-03-01T13:21:51;9.90;;;5.78;;
75691;SDS011;64307;52.508;6.090;2023-03-01T13:29:30;5.93;;;3.40;;
75691;SDS011;64307;52.508;6.090;2023-03-01T13:32:21;8.20;;;4.55;;
75691;SDS011;64307;52.508;6.090;2023-03-01T13:34:54;7.53;;;4.80;;
75691;SDS011;64307;52.508;6.090;2023-03-01T13:37:25;6.05;;;3.38;;
75691;SDS011;64307;52.508;6.090;2023-03-01T13:40:00;7.15;;;3.25;;
75691;SDS011;64307;52.508;6.090;2023-03-01T13:42:46;5.93;;;3.17;;
75691;SDS011;64307;52.508;6.090;2023-03-01T13:45:19;6.15;;;2.90;;
75691;SDS011;64307;52.508;6.090;2023-03-01T13:47:47;7.47;;;3.15;;
75691;SDS011;64307;52.508;6.090;2023-03-01T13:50:20;6.57;;;3.35;;
75691;SDS011;64307;52.508;6.090;2023-03-01T13:53:23;7.97;;;4.07;;
75691;SDS011;64307;52.508;6.090;2023-03-01T13:55:44;8.85;;;3.55;;
75691;SDS011;64307;52.508;6.090;2023-03-01T13:58:21;6.28;;;3.50;;
75691;SDS011;64307;52.508;6.090;2023-03-01T14:01:00;6.97;;;3.65;;
75691;SDS011;64307;52.508;6.090;2023-03-01T14:03:31;7.65;;;3.47;;
75691;SDS011;64307;52.508;6.090;2023-03-01T14:08:24;8.00;;;4.78;;
75691;SDS011;64307;52.508;6.090;2023-03-01T14:16:16;9.52;;;4.18;;
75691;SDS011;64307;52.508;6.090;2023-03-01T14:21:26;8.10;;;4.63;;
75691;SDS011;64307;52.508;6.090;2023-03-01T14:23:52;7.75;;;3.90;;
75691;SDS011;64307;52.508;6.090;2023-03-01T14:26:21;6.60;;;3.63;;
75691;SDS011;64307;52.508;6.090;2023-03-01T14:28:47;7.93;;;5.28;;
75691;SDS011;64307;52.508;6.090;2023-03-01T14:34:00;9.15;;;5.35;;
75691;SDS011;64307;52.508;6.090;2023-03-01T14:36:28;8.88;;;4.43;;
75691;SDS011;64307;52.508;6.090;2023-03-01T14:38:55;8.10;;;5.15;;
75691;SDS011;64307;52.508;6.090;2023-03-01T14:41:21;7.93;;;3.95;;
75691;SDS011;64307;52.508;6.090;2023-03-01T14:43:52;9.68;;;4.93;;
75691;SDS011;64307;52.508;6.090;2023-03-01T14:46:30;8.43;;;4.18;;
75691;SDS011;64307;52.508;6.090;2023-03-01T14:49:03;9.35;;;4.65;;
75691;SDS011;64307;52.508;6.090;2023-03-01T14:51:54;9.63;;;4.60;;
75691;SDS011;64307;52.508;6.090;2023-03-01T14:54:48;9.35;;;4.70;;
75691;SDS011;64307;52.508;6.090;2023-03-01T14:57:18;8.68;;;4.53;;
75691;SDS011;64307;52.508;6.090;2023-03-01T15:02:18;10.48;;;4.22;;
75691;SDS011;64307;52.508;6.090;2023-03-01T15:04:49;9.45;;;6.15;;
75691;SDS011;64307;52.508;6.090;2023-03-01T15:07:17;9.65;;;5.75;;
75691;SDS011;64307;52.508;6.090;2023-03-01T15:09:43;10.73;;;3.90;;
75691;SDS011;64307;52.508;6.090;2023-03-01T15:14:54;8.40;;;3.95;;
75691;SDS011;64307;52.508;6.090;2023-03-01T15:17:34;7.93;;;3.97;;
75691;SDS011;64307;52.508;6.090;2023-03-01T15:20:03;8.35;;;3.85;;
75691;SDS011;64307;52.508;6.090;2023-03-01T15:22:31;8.98;;;4.07;;
75691;SDS011;64307;52.508;6.090;2023-03-01T15:24:56;8.45;;;4.25;;
75691;SDS011;64307;52.508;6.090;2023-03-01T15:27:23;8.98;;;3.80;;
75691;SDS011;64307;52.508;6.090;2023-03-01T15:29:50;8.20;;;3.80;;
75691;SDS011;64307;52.508;6.090;2023-03-01T15:34:57;7.35;;;4.18;;
75691;SDS011;64307;52.508;6.090;2023-03-01T15:42:45;8.55;;;4.43;;
75691;SDS011;64307;52.508;6.090;2023-03-01T15:47:41;13.13;;;5.40;;
75691;SDS011;64307;52.508;6.090;2023-03-01T15:50:23;7.97;;;4.22;;
75691;SDS011;64307;52.508;6.090;2023-03-01T15:52:51;8.75;;;4.53;;
75691;SDS011;64307;52.508;6.090;2023-03-01T15:55:19;9.48;;;4.65;;
75691;SDS011;64307;52.508;6.090;2023-03-01T15:57:48;8.55;;;3.92;;
75691;SDS011;64307;52.508;6.090;2023-03-01T16:00:14;9.55;;;5.00;;
75691;SDS011;64307;52.508;6.090;2023-03-01T16:05:26;8.85;;;4.03;;
75691;SDS011;64307;52.508;6.090;2023-03-01T16:07:53;8.68;;;4.35;;
75691;SDS011;64307;52.508;6.090;2023-03-01T16:10:19;10.32;;;4.50;;
75691;SDS011;64307;52.508;6.090;2023-03-01T16:12:44;8.40;;;4.20;;
75691;SDS011;64307;52.508;6.090;2023-03-01T16:15:19;8.85;;;4.63;;
75691;SDS011;64307;52.508;6.090;2023-03-01T16:17:50;9.95;;;4.40;;
75691;SDS011;64307;52.508;6.090;2023-03-01T16:20:17;8.50;;;4.70;;
75691;SDS011;64307;52.508;6.090;2023-03-01T16:22:43;7.75;;;4.22;;
75691;SDS011;64307;52.508;6.090;2023-03-01T16:25:13;9.27;;;5.20;;
75691;SDS011;64307;52.508;6.090;2023-03-01T16:27:43;10.60;;;4.55;;
75691;SDS011;64307;52.508;6.090;2023-03-01T16:30:14;9.77;;;4.75;;
75691;SDS011;64307;52.508;6.090;2023-03-01T16:32:41;9.10;;;4.53;;
75691;SDS011;64307;52.508;6.090;2023-03-01T16:35:10;8.48;;;4.30;;
75691;SDS011;64307;52.508;6.090;2023-03-01T16:37:37;11.60;;;6.72;;
75691;SDS011;64307;52.508;6.090;2023-03-01T16:40:03;8.70;;;4.90;;
75691;SDS011;64307;52.508;6.090;2023-03-01T16:42:35;10.13;;;5.00;;
75691;SDS011;64307;52.508;6.090;2023-03-01T16:45:01;9.90;;;5.47;;
75691;SDS011;64307;52.508;6.090;2023-03-01T16:47:28;8.98;;;4.85;;
75691;SDS011;64307;52.508;6.090;2023-03-01T16:49:56;10.10;;;5.18;;
75691;SDS011;64307;52.508;6.090;2023-03-01T16:52:21;11.00;;;5.05;;
75691;SDS011;64307;52.508;6.090;2023-03-01T16:54:47;12.40;;;5.28;;
75691;SDS011;64307;52.508;6.090;2023-03-01T16:57:13;12.55;;;5.30;;
75691;SDS011;64307;52.508;6.090;2023-03-01T16:59:38;9.68;;;5.35;;
75691;SDS011;64307;52.508;6.090;2023-03-01T17:02:04;9.65;;;5.45;;
75691;SDS011;64307;52.508;6.090;2023-03-01T17:04:31;12.95;;;6.03;;
75691;SDS011;64307;52.508;6.090;2023-03-01T17:06:57;12.90;;;6.00;;
75691;SDS011;64307;52.508;6.090;2023-03-01T17:09:22;14.60;;;7.93;;
75691;SDS011;64307;52.508;6.090;2023-03-01T17:11:48;13.57;;;6.18;;
75691;SDS011;64307;52.508;6.090;2023-03-01T17:14:14;12.20;;;6.68;;
75691;SDS011;64307;52.508;6.090;2023-03-01T17:16:41;13.60;;;6.43;;
75691;SDS011;64307;52.508;6.090;2023-03-01T17:19:07;12.02;;;6.50;;
75691;SDS011;64307;52.508;6.090;2023-03-01T17:21:32;14.82;;;8.25;;
75691;SDS011;64307;52.508;6.090;2023-03-01T17:23:58;12.93;;;8.38;;
75691;SDS011;64307;52.508;6.090;2023-03-01T17:26:24;14.63;;;7.47;;
75691;SDS011;64307;52.508;6.090;2023-03-01T17:28:50;13.75;;;6.78;;